Time;durP1;ratioP1;P1;durP2;ratioP2;P2;SDS_P1;SDS_P2;PMS_P1;PMS_P2;Temp;Humidity;BMP_temperature;BMP_pressure;BME280_temperature;BME280_humidity;BME280_pressure;Samples;Min_cycle;Max_cycle;Signal;HPM_P1;HPM_P2
2023/07/07 00:02:05;;;;;;;;;;;;;;;22.03;49.64;101930.75;5083596;28;19914;-72
2023/07/07 00:04:31;;;;;;;;;;;;;;;22.03;49.50;101928.03;5050151;28;19952;-72
2023/07/07 00:06:56;;;;;;;;;;;;;;;22.03;49.34;101928.03;5047878;28;19935;-72
2023/07/07 00:09:21;;;;;;;;;;;;;;;22.01;49.54;101922.78;5086238;28;19913;-72
2023/07/07 00:11:46;;;;;;;;;;;;;;;22.01;49.20;101930.91;5051107;28;19917;-74
2023/07/07 00:14:12;;;;;;;;;;;;;;;22.01;49.53;101930.91;5052695;28;19913;-73
2023/07/07 00:16:37;;;;;;;;;;;;;;;22.00;49.21;101928.34;5051106;28;19957;-72
2023/07/07 00:19:02;;;;;;;;;;;;;;;21.99;49.46;101927.50;5050315;28;19992;-72
2023/07/07 00:21:27;;;;;;;;;;;;;;;21.99;49.17;101926.66;5083779;28;20475;-72
2023/07/07 00:23:55;;;;;;;;;;;;;;;21.99;49.21;101932.06;5053010;28;19924;-72
2023/07/07 00:26:20;;;;;;;;;;;;;;;21.96;49.26;101931.41;5051284;28;19913;-72
2023/07/07 00:28:45;;;;;;;;;;;;;;;;;;5083355;28;20312;-72
2023/07/07 00:31:11;;;;;;;;;;;;;;;21.96;49.37;101927.81;5051771;28;19913;-72
2023/07/07 00:33:36;;;;;;;;;;;;;;;21.96;49.41;101933.25;5047241;28;19914;-72
2023/07/07 00:36:01;;;;;;;;;;;;;;;21.95;49.33;101926.97;5047046;28;19921;-72
2023/07/07 00:38:26;;;;;;;;;;;;;;;21.95;49.36;101926.97;5049250;28;19924;-72
2023/07/07 00:40:52;;;;;;;;;;;;;;;21.95;49.32;101931.56;5050377;28;19913;-72
2023/07/07 00:43:18;;;;;;;;;;;;;;;21.94;49.40;101927.16;5049554;28;19994;-72
2023/07/07 00:45:44;;;;;;;;;;;;;;;21.94;49.33;101929.88;5048469;28;20374;-72
2023/07/07 00:48:10;;;;;;;;;;;;;;;21.94;49.31;101930.72;5052047;28;19917;-72
2023/07/07 00:50:37;;;;;;;;;;;;;;;21.93;49.26;101930.88;5051045;28;19924;-72
2023/07/07 00:53:02;;;;;;;;;;;;;;;21.92;49.35;101929.19;5052473;28;19917;-72
2023/07/07 00:55:31;;;;;;;;;;;;;;;21.92;49.07;101934.63;5049667;28;19936;-72
2023/07/07 00:57:58;;;;;;;;;;;;;;;21.91;49.25;101933.72;5049563;28;19939;-72
2023/07/07 01:00:24;;;;;;;;;;;;;;;21.92;49.04;101940.03;5045414;28;19920;-72
2023/07/07 01:02:52;;;;;;;;;;;;;;;21.90;49.21;101932.03;5051060;28;19921;-72
2023/07/07 01:05:17;;;;;;;;;;;;;;;21.90;49.20;101937.47;5081327;28;19919;-72
2023/07/07 01:07:43;;;;;;;;;;;;;;;21.89;49.23;101933.06;5048755;28;19976;-72
2023/07/07 01:10:09;;;;;;;;;;;;;;;21.89;49.28;101930.34;5052116;28;19913;-72
2023/07/07 01:12:34;;;;;;;;;;;;;;;21.89;49.26;101934.94;5051000;28;20015;-72
2023/07/07 01:14:59;;;;;;;;;;;;;;;21.88;49.10;101934.09;5084594;28;19920;-72
2023/07/07 01:17:32;;;;;;;;;;;;;;;21.87;48.98;101929.66;5085796;28;19921;-72
2023/07/07 01:20:00;;;;;;;;;;;;;;;21.86;48.86;101925.25;5087926;28;19956;-72
2023/07/07 01:22:38;;;;;;;;;;;;;;;21.85;48.99;101926.28;5050746;28;19932;-72
2023/07/07 01:25:22;;;;;;;;;;;;;;;21.85;48.93;101937.09;5053528;28;19938;-72
2023/07/07 01:27:48;;;;;;;;;;;;;;;21.84;49.24;101932.72;5049835;28;19917;-72
2023/07/07 01:30:13;;;;;;;;;;;;;;;21.84;48.99;101930.00;5053219;28;19939;-72
2023/07/07 01:32:38;;;;;;;;;;;;;;;21.84;49.04;101929.16;5053828;28;19913;-72
2023/07/07 01:35:05;;;;;;;;;;;;;;;21.83;49.04;101931.00;5051707;28;19917;-72
2023/07/07 01:37:31;;;;;;;;;;;;;;;21.82;48.77;101928.47;5051873;28;19913;-72
2023/07/07 01:39:56;;;;;;;;;;;;;;;21.80;49.02;101931.34;5052921;28;20397;-72
2023/07/07 01:42:27;;;;;;;;;;;;;;;21.81;48.88;101929.47;5053227;28;19917;-72
2023/07/07 01:44:56;;;;;;;;;;;;;;;21.80;49.00;101935.91;5056177;28;19920;-72
2023/07/07 01:47:30;;;;;;;;;;;;;;;21.79;49.07;101935.06;5055485;28;19912;-72
2023/07/07 01:49:56;;;;;;;;;;;;;;;21.79;48.85;101928.78;5035569;28;19923;-72
2023/07/07 01:52:27;;;;;;;;;;;;;;;21.78;48.91;101935.22;5055548;28;20344;-72
2023/07/07 01:55:00;;;;;;;;;;;;;;;21.78;48.86;101940.63;5049295;28;19917;-72
2023/07/07 01:57:25;;;;;;;;;;;;;;;21.76;48.88;101935.38;5052049;28;19940;-72
2023/07/07 01:59:50;;;;;;;;;;;;;;;21.76;49.02;101939.97;5083433;28;19918;-72
2023/07/07 02:02:15;;;;;;;;;;;;;;;21.75;48.61;101933.69;5050289;28;19919;-72
2023/07/07 02:04:41;;;;;;;;;;;;;;;21.75;49.04;101930.13;5056829;28;20020;-72
2023/07/07 02:07:07;;;;;;;;;;;;;;;21.74;48.79;101933.84;5050057;28;19928;-71
2023/07/07 02:09:32;;;;;;;;;;;;;;;21.74;48.92;101931.13;5054200;28;19960;-72
2023/07/07 02:11:57;;;;;;;;;;;;;;;21.72;48.73;101939.44;5086586;28;19976;-72
2023/07/07 02:14:22;;;;;;;;;;;;;;;21.71;49.06;101930.47;5053049;28;19919;-72
2023/07/07 02:16:49;;;;;;;;;;;;;;;21.71;48.88;101935.88;5052255;28;19917;-72
2023/07/07 02:19:15;;;;;;;;;;;;;;;21.70;48.96;101931.44;5055019;28;19974;-72
2023/07/07 02:21:40;;;;;;;;;;;;;;;21.69;48.76;101934.34;5084766;28;19913;-72
2023/07/07 02:24:05;;;;;;;;;;;;;;;21.69;48.72;101929.75;5052662;28;19967;-72
2023/07/07 02:26:30;;;;;;;;;;;;;;;21.68;48.78;101928.06;5051504;28;19920;-72
2023/07/07 02:28:55;;;;;;;;;;;;;;;21.68;48.79;101930.78;5048582;28;19932;-71
2023/07/07 02:31:24;;;;;;;;;;;;;;;21.66;48.85;101929.22;5055042;28;19924;-72
2023/07/07 02:33:49;;;;;;;;;;;;;;;21.65;48.94;101927.53;5052403;28;19971;-72
2023/07/07 02:36:15;;;;;;;;;;;;;;;21.64;48.58;101932.09;5054012;28;19917;-71
2023/07/07 02:38:40;;;;;;;;;;;;;;;21.64;48.63;101931.28;5054560;28;19924;-72
2023/07/07 02:41:05;;;;;;;;;;;;;;;21.63;48.89;101933.13;5085454;28;19924;-72
2023/07/07 02:43:30;;;;;;;;;;;;;;;21.63;48.97;101935.00;5085834;28;19919;-72
2023/07/07 02:45:56;;;;;;;;;;;;;;;21.62;48.81;101930.56;5054292;28;19940;-73
2023/07/07 02:48:21;;;;;;;;;;;;;;;21.61;48.90;101928.88;5083924;28;19917;-72
2023/07/07 02:50:57;;;;;;;;;;;;;;;21.60;48.79;101933.44;5052816;28;19951;-72
2023/07/07 02:53:26;;;;;;;;;;;;;;;21.60;48.73;101936.16;5035255;28;19939;-72
2023/07/07 02:55:51;;;;;;;;;;;;;;;21.60;48.59;101932.59;5080569;28;19925;-72
2023/07/07 02:58:17;;;;;;;;;;;;;;;21.58;48.59;101940.88;5053914;28;19916;-72
2023/07/07 03:00:42;;;;;;;;;;;;;;;21.58;48.87;101940.00;5049631;28;19913;-72
2023/07/07 03:03:07;;;;;;;;;;;;;;;21.57;48.54;101931.06;5084749;28;19959;-72
2023/07/07 03:05:32;;;;;;;;;;;;;;;21.56;48.67;101940.19;5052751;28;20028;-72
2023/07/07 03:07:58;;;;;;;;;;;;;;;21.56;48.67;101936.63;5052670;28;20358;-72
2023/07/07 03:10:23;;;;;;;;;;;;;;;21.56;48.65;101936.63;5084978;28;19913;-72
2023/07/07 03:12:48;;;;;;;;;;;;;;;21.54;48.75;101931.41;5054919;28;20009;-72
2023/07/07 03:15:13;;;;;;;;;;;;;;;21.54;49.02;101939.50;5052630;28;20307;-72
2023/07/07 03:17:39;;;;;;;;;;;;;;;21.53;48.79;101940.50;5066467;28;19924;-72
2023/07/07 03:20:05;;;;;;;;;;;;;;;21.53;48.67;101934.25;5085150;28;20382;-72
2023/07/07 03:22:30;;;;;;;;;;;;;;;21.53;48.78;101936.94;5082454;28;19913;-72
2023/07/07 03:24:56;;;;;;;;;;;;;;;21.52;48.63;101941.53;5049270;28;19956;-72
2023/07/07 03:27:21;;;;;;;;;;;;;;;21.51;48.80;101942.53;5081389;28;19921;-71
2023/07/07 03:29:48;;;;;;;;;;;;;;;21.51;48.56;101947.09;5049806;28;19913;-72
2023/07/07 03:32:13;;;;;;;;;;;;;;;21.50;48.70;101948.97;5082791;28;19917;-71
2023/07/07 03:34:41;;;;;;;;;;;;;;;21.49;48.62;101944.53;5051740;28;19980;-71
2023/07/07 03:37:07;;;;;;;;;;;;;;;21.50;48.71;101942.72;5052864;28;19951;-71
2023/07/07 03:39:32;;;;;;;;;;;;;;;21.48;48.77;101942.00;5052552;28;19912;-70
2023/07/07 03:41:57;;;;;;;;;;;;;;;21.48;48.87;101939.28;5052300;28;19924;-71
2023/07/07 03:44:23;;;;;;;;;;;;;;;21.46;48.93;101944.88;5051633;28;19917;-71
2023/07/07 03:46:48;;;;;;;;;;;;;;;21.46;48.96;101945.72;5052677;28;19913;-71
2023/07/07 03:49:13;;;;;;;;;;;;;;;21.46;48.60;101948.44;5049689;28;19913;-71
2023/07/07 03:51:38;;;;;;;;;;;;;;;21.45;48.61;101954.84;5050718;28;19920;-71
2023/07/07 03:54:04;;;;;;;;;;;;;;;21.44;48.68;101953.13;5048733;28;20286;-71
2023/07/07 03:56:29;;;;;;;;;;;;;;;21.44;48.65;101942.31;5081032;28;20496;-71
2023/07/07 03:58:54;;;;;;;;;;;;;;;21.44;48.54;101952.28;5050801;28;19955;-71
2023/07/07 04:01:19;;;;;;;;;;;;;;;21.43;48.56;101956.00;5052959;28;19949;-71
2023/07/07 04:03:48;;;;;;;;;;;;;;;21.42;48.61;101957.88;5051081;28;19923;-71
2023/07/07 04:06:14;;;;;;;;;;;;;;;21.42;48.85;101952.47;5051785;28;19917;-71
2023/07/07 04:08:39;;;;;;;;;;;;;;;21.42;48.53;101957.88;5051832;28;19983;-71
2023/07/07 04:11:05;;;;;;;;;;;;;;;21.42;48.59;101954.31;5082944;28;20469;-70
2023/07/07 04:13:32;;;;;;;;;;;;;;;21.41;48.65;101950.78;5053659;28;19912;-71
2023/07/07 04:16:01;;;;;;;;;;;;;;;21.41;48.81;101955.34;5034286;28;19912;-71
2023/07/07 04:18:27;;;;;;;;;;;;;;;21.40;48.85;101957.16;5049726;28;19960;-70
2023/07/07 04:20:52;;;;;;;;;;;;;;;21.40;48.86;101959.88;5049802;28;19920;-71
2023/07/07 04:23:17;;;;;;;;;;;;;;;21.40;48.63;101964.44;5045615;28;19913;-72
2023/07/07 04:25:45;;;;;;;;;;;;;;;21.40;48.83;101959.03;5052371;28;19935;-72
2023/07/07 04:28:10;;;;;;;;;;;;;;;21.39;48.60;101963.59;5050925;28;20004;-72
2023/07/07 04:30:36;;;;;;;;;;;;;;;21.39;48.62;101960.88;5082996;28;19928;-72
2023/07/07 04:33:01;;;;;;;;;;;;;;;21.38;48.73;101964.63;5049756;28;20055;-72
2023/07/07 04:35:26;;;;;;;;;;;;;;;21.38;48.89;101972.72;5083975;28;19921;-72
2023/07/07 04:37:51;;;;;;;;;;;;;;;21.38;48.45;101964.63;5052292;28;19928;-72
2023/07/07 04:40:17;;;;;;;;;;;;;;;21.39;48.64;101969.00;5052165;28;19916;-71
2023/07/07 04:42:42;;;;;;;;;;;;;;;21.38;48.62;101964.63;5082932;28;19913;-71
2023/07/07 04:45:07;;;;;;;;;;;;;;;21.38;48.63;101969.19;5048800;28;19913;-71
2023/07/07 04:47:32;;;;;;;;;;;;;;;21.37;48.47;101962.06;5051761;28;20029;-71
2023/07/07 04:49:58;;;;;;;;;;;;;;;21.37;48.46;101967.50;5046030;28;19917;-71
2023/07/07 04:52:23;;;;;;;;;;;;;;;21.36;48.49;101963.91;5054604;28;19916;-72
2023/07/07 04:54:49;;;;;;;;;;;;;;;21.36;48.78;101974.72;5055094;28;19917;-71
2023/07/07 04:57:14;;;;;;;;;;;;;;;21.37;48.69;101971.03;5034690;28;19982;-72
2023/07/07 04:59:39;;;;;;;;;;;;;;;21.36;48.45;101966.63;5054712;28;19928;-72
2023/07/07 05:02:05;;;;;;;;;;;;;;;21.36;48.66;101965.75;5038261;28;19917;-73
2023/07/07 05:04:30;;;;;;;;;;;;;;;21.36;48.78;101977.44;5054693;28;19936;-73
2023/07/07 05:06:55;;;;;;;;;;;;;;;21.37;48.95;101975.59;5051099;28;19956;-73
2023/07/07 05:09:20;;;;;;;;;;;;;;;21.37;48.89;101971.03;5055522;28;19924;-72
2023/07/07 05:11:45;;;;;;;;;;;;;;;21.37;48.95;101970.19;5053160;28;19939;-73
2023/07/07 05:14:10;;;;;;;;;;;;;;;21.37;48.90;101962.91;5056391;28;19912;-72
2023/07/07 05:16:36;;;;;;;;;;;;;;;21.38;48.69;101966.47;5051791;28;20275;-72
2023/07/07 05:19:01;;;;;;;;;;;;;;;21.38;48.76;101969.19;5049556;28;20693;-72
2023/07/07 05:21:27;;;;;;;;;;;;;;;21.38;49.06;101971.88;5083989;28;19913;-73
2023/07/07 05:23:52;;;;;;;;;;;;;;;21.37;48.79;101968.34;5050076;28;19924;-73
2023/07/07 05:26:18;;;;;;;;;;;;;;;21.37;48.87;101973.75;5053255;28;19992;-74
2023/07/07 05:28:43;;;;;;;;;;;;;;;21.38;49.00;101971.88;5055317;28;19913;-71
2023/07/07 05:31:09;;;;;;;;;;;;;;;21.38;48.87;101975.44;5056202;28;20353;-75
2023/07/07 05:33:34;;;;;;;;;;;;;;;21.39;49.09;101982.53;5054228;28;19912;-75
2023/07/07 05:36:00;;;;;;;;;;;;;;;21.40;49.49;101983.38;5055371;28;19935;-75
2023/07/07 05:38:26;;;;;;;;;;;;;;;21.40;49.27;101986.94;5068327;28;19917;-74
2023/07/07 05:40:51;;;;;;;;;;;;;;;21.41;49.63;101985.09;5053891;28;19913;-76
2023/07/07 05:43:18;;;;;;;;;;;;;;;21.40;49.38;101983.38;5057681;28;19920;-75
2023/07/07 05:45:43;;;;;;;;;;;;;;;21.41;49.48;101987.81;5050079;28;19970;-75
2023/07/07 05:48:08;;;;;;;;;;;;;;;21.41;49.64;101976.97;5052515;28;19917;-76
2023/07/07 05:50:34;;;;;;;;;;;;;;;21.42;49.70;101987.63;5048406;28;19913;-74
2023/07/07 05:53:01;;;;;;;;;;;;;;;21.43;49.69;101983.06;5052117;28;19925;-74
2023/07/07 05:55:30;;;;;;;;;;;;;;;21.43;49.83;101988.47;5083566;28;19925;-75
2023/07/07 05:57:55;;;;;;;;;;;;;;;21.43;49.80;101991.19;5081047;28;19917;-75
2023/07/07 06:00:21;;;;;;;;;;;;;;;21.43;49.92;101992.03;5085155;28;19935;-74
2023/07/07 06:02:46;;;;;;;;;;;;;;;21.44;49.82;101990.16;5054092;28;19913;-74
2023/07/07 06:05:11;;;;;;;;;;;;;;;21.43;49.82;101986.63;5054853;28;19920;-73
2023/07/07 06:07:36;;;;;;;;;;;;;;;21.44;49.91;101991.00;5053885;28;19927;-73
2023/07/07 06:10:02;;;;;;;;;;;;;;;21.43;49.76;101989.31;5056787;28;19913;-74
2023/07/07 06:12:28;;;;;;;;;;;;;;;21.44;49.98;101991.00;5052325;28;19924;-72
2023/07/07 06:14:53;;;;;;;;;;;;;;;21.44;49.78;101982.91;5050750;28;19918;-74
2023/07/07 06:17:18;;;;;;;;;;;;;;;21.44;50.16;101982.91;5053315;28;19931;-73
2023/07/07 06:19:43;;;;;;;;;;;;;;;21.44;49.73;101991.00;5051276;28;19920;-73
2023/07/07 06:22:09;;;;;;;;;;;;;;;21.45;49.81;101989.16;5050614;28;19921;-74
2023/07/07 06:24:34;;;;;;;;;;;;;;;21.45;49.80;101986.44;5052919;28;19970;-76
2023/07/07 06:26:59;;;;;;;;;;;;;;;21.45;49.65;101981.03;5072038;28;19992;-76
2023/07/07 06:29:24;;;;;;;;;;;;;;;21.45;50.07;101989.16;5055526;28;20436;-74
2023/07/07 06:31:49;;;;;;;;;;;;;;;21.45;50.29;101987.31;5052555;28;20057;-73
2023/07/07 06:34:15;;;;;;;;;;;;;;;21.45;50.09;101990.03;5051411;28;19963;-73
2023/07/07 06:36:40;;;;;;;;;;;;;;;21.46;50.02;101996.28;5051106;28;19913;-72
2023/07/07 06:39:05;;;;;;;;;;;;;;;21.46;49.94;101999.00;5047960;28;19925;-72
2023/07/07 06:41:30;;;;;;;;;;;;;;;21.46;50.23;101994.44;5033486;28;20387;-72
2023/07/07 06:43:56;;;;;;;;;;;;;;;21.46;50.35;101999.84;5049548;28;19925;-73
2023/07/07 06:46:22;;;;;;;;;;;;;;;21.48;50.20;102006.94;5049264;28;19917;-73
2023/07/07 06:48:47;;;;;;;;;;;;;;;21.48;50.10;102009.66;5047375;28;19921;-74
2023/07/07 06:51:12;;;;;;;;;;;;;;;21.47;50.35;102006.09;5047775;28;19920;-74
2023/07/07 06:53:38;;;;;;;;;;;;;;;21.46;50.28;102010.66;5049192;28;19913;-73
2023/07/07 06:56:03;;;;;;;;;;;;;;;21.46;50.12;102007.97;5084545;28;19927;-72
2023/07/07 06:58:28;;;;;;;;;;;;;;;21.46;50.13;102013.38;5053205;28;19917;-73
2023/07/07 07:00:53;;;;;;;;;;;;;;;21.48;50.32;102012.34;5051020;28;19928;-72
2023/07/07 07:03:20;;;;;;;;;;;;;;;21.48;50.43;102010.50;5052577;28;19916;-73
2023/07/07 07:05:46;;;;;;;;;;;;;;;21.47;50.29;102006.09;5051843;28;19980;-73
2023/07/07 07:08:11;;;;;;;;;;;;;;;21.48;50.24;102015.06;5083966;28;19920;-72
2023/07/07 07:10:36;;;;;;;;;;;;;;;21.48;50.15;102015.91;5055893;28;19920;-73
2023/07/07 07:13:01;;;;;;;;;;;;;;;21.48;49.99;102015.91;5046055;28;19913;-73
2023/07/07 07:15:26;;;;;;;;;;;;;;;21.49;50.02;102024.88;5051940;28;19948;-72
2023/07/07 07:17:52;;;;;;;;;;;;;;;21.49;50.32;102014.03;5049458;28;19921;-73
2023/07/07 07:20:17;;;;;;;;;;;;;;;21.50;49.88;102018.47;5053130;28;19920;-73
2023/07/07 07:22:43;;;;;;;;;;;;;;;21.50;50.10;102024.72;5051735;28;20008;-78
2023/07/07 07:25:08;;;;;;;;;;;;;;;21.50;50.07;102019.31;5052805;28;20043;-73
2023/07/07 07:27:33;;;;;;;;;;;;;;;21.51;50.00;102031.84;5052583;28;20468;-74
2023/07/07 07:29:58;;;;;;;;;;;;;;;21.51;49.69;102026.41;5054021;28;19948;-72
2023/07/07 07:32:24;;;;;;;;;;;;;;;21.51;49.96;102034.53;5055642;28;19916;-73
2023/07/07 07:34:49;;;;;;;;;;;;;;;21.51;49.95;102034.53;5048561;28;19928;-73
2023/07/07 07:37:14;;;;;;;;;;;;;;;21.51;49.86;102037.25;5030192;28;19913;-75
2023/07/07 07:39:40;;;;;;;;;;;;;;;21.51;49.99;102034.53;5048706;28;20354;-75
2023/07/07 07:42:05;;;;;;;;;;;;;;;21.52;49.76;102033.53;5054263;28;19917;-76
2023/07/07 07:44:31;;;;;;;;;;;;;;;21.52;49.89;102030.81;5051704;28;19929;-74
2023/07/07 07:46:56;;;;;;;;;;;;;;;21.53;49.67;102028.94;5081920;28;19917;-74
2023/07/07 07:49:22;;;;;;;;;;;;;;;21.53;49.95;102031.66;5047054;28;20361;-74
2023/07/07 07:51:47;;;;;;;;;;;;;;;21.54;49.88;102036.09;5049984;28;19967;-74
2023/07/07 07:54:12;;;;;;;;;;;;;;;21.54;49.70;102036.09;5073869;28;19928;-75
2023/07/07 07:56:38;;;;;;;;;;;;;;;21.53;49.82;102034.38;5051196;28;19967;-76
2023/07/07 07:59:03;;;;;;;;;;;;;;;21.53;49.80;102034.38;5050226;28;19913;-77
2023/07/07 08:01:29;;;;;;;;;;;;;;;21.54;50.08;102033.38;5081025;28;20338;-77
2023/07/07 08:03:54;;;;;;;;;;;;;;;21.54;49.75;102033.38;5051918;28;19956;-75
2023/07/07 08:06:19;;;;;;;;;;;;;;;21.54;49.91;102038.78;5052870;28;19925;-76
2023/07/07 08:08:45;;;;;;;;;;;;;;;21.53;49.94;102037.91;5081419;28;19913;-75
2023/07/07 08:11:14;;;;;;;;;;;;;;;21.54;49.78;102039.63;5052951;28;19920;-75
2023/07/07 08:13:39;;;;;;;;;;;;;;;21.53;49.66;102048.75;5049022;28;20448;-77
2023/07/07 08:16:07;;;;;;;;;;;;;;;21.53;49.91;102040.63;5052977;28;19976;-77
2023/07/07 08:18:32;;;;;;;;;;;;;;;21.54;49.44;102046.91;5082343;28;19975;-77
2023/07/07 08:20:57;;;;;;;;;;;;;;;21.55;49.79;102056.72;5048158;28;19925;-75
2023/07/07 08:23:22;;;;;;;;;;;;;;;21.55;49.59;102056.72;5053945;28;20032;-75
2023/07/07 08:25:51;;;;;;;;;;;;;;;21.55;49.55;102049.44;5051971;28;19925;-79
2023/07/07 08:28:16;;;;;;;;;;;;;;;21.55;49.59;102052.16;5049161;28;19924;-77
2023/07/07 08:30:41;;;;;;;;;;;;;;;21.56;49.73;102050.28;5084023;28;19917;-75
2023/07/07 08:33:06;;;;;;;;;;;;;;;21.56;49.79;102045.72;5082969;28;19917;-75
2023/07/07 08:35:32;;;;;;;;;;;;;;;21.58;49.72;102048.25;5046486;28;19913;-76
2023/07/07 08:37:57;;;;;;;;;;;;;;;21.57;49.66;102049.28;5051439;28;19921;-77
2023/07/07 08:40:23;;;;;;;;;;;;;;;21.57;49.68;102052.84;5047087;28;19917;-76
2023/07/07 08:42:48;;;;;;;;;;;;;;;21.58;49.70;102056.38;5048984;28;19917;-77
2023/07/07 08:45:15;;;;;;;;;;;;;;;21.58;49.97;102054.56;5050654;28;19936;-75
2023/07/07 08:48:01;;;;;;;;;;;;;;;21.59;49.71;102050.00;5048867;28;19966;-77
2023/07/07 08:50:36;;;;;;;;;;;;;;;21.59;49.67;102055.41;5049605;28;20032;-77
2023/07/07 08:53:03;;;;;;;;;;;;;;;21.59;49.84;102056.25;5052252;28;20394;-76
2023/07/07 08:55:46;;;;;;;;;;;;;;;21.59;49.91;102056.25;5052271;28;19921;-77
2023/07/07 08:58:18;;;;;;;;;;;;;;;21.60;49.95;102057.09;5050567;28;19921;-76
2023/07/07 09:01:14;;;;;;;;;;;;;;;21.59;49.54;102056.25;5064090;28;19917;-76
2023/07/07 09:03:51;;;;;;;;;;;;;;;21.61;49.46;102056.06;5048260;28;19917;-77
2023/07/07 09:06:28;;;;;;;;;;;;;;;21.60;49.51;102051.69;5081307;28;19913;-76
2023/07/07 09:09:22;;;;;;;;;;;;;;;21.61;49.45;102050.66;5080066;28;19973;-73
2023/07/07 09:11:57;;;;;;;;;;;;;;;21.62;49.61;102049.66;5056329;28;19913;-78
2023/07/07 09:14:22;;;;;;;;;;;;;;;21.62;49.57;102046.94;5044006;28;19921;-72
2023/07/07 09:16:47;;;;;;;;;;;;;;;21.62;49.59;102055.06;5051640;28;19951;-77
2023/07/07 09:19:24;;;;;;;;;;;;;;;21.63;49.84;102048.66;5052699;28;19917;-76
2023/07/07 09:21:51;;;;;;;;;;;;;;;21.63;49.80;102054.06;5052698;28;19912;-76
2023/07/07 09:24:25;;;;;;;;;;;;;;;21.63;49.62;102051.38;5050106;28;20292;-76
2023/07/07 09:26:51;;;;;;;;;;;;;;;21.64;49.73;102048.50;5049024;28;19917;-76
2023/07/07 09:29:19;;;;;;;;;;;;;;;21.64;49.66;102043.09;5048542;28;19924;-76
2023/07/07 09:31:44;;;;;;;;;;;;;;;21.65;49.50;102050.19;5032327;28;19913;-76
2023/07/07 09:34:09;;;;;;;;;;;;;;;21.65;49.87;102050.19;5083623;28;19924;-77
2023/07/07 09:36:36;;;;;;;;;;;;;;;21.67;49.64;102052.75;5046512;28;19920;-76
2023/07/07 09:39:03;;;;;;;;;;;;;;;21.67;49.42;102045.47;5089094;28;19921;-76
2023/07/07 09:41:28;;;;;;;;;;;;;;;21.68;49.61;102046.31;5051356;28;19913;-76
2023/07/07 09:43:56;;;;;;;;;;;;;;;21.68;49.41;102043.63;5055617;28;19913;-76
2023/07/07 09:46:24;;;;;;;;;;;;;;;21.69;49.78;102043.44;5053038;28;20386;-76
2023/07/07 09:48:55;;;;;;;;;;;;;;;21.69;49.82;102037.19;5085281;28;19924;-76
2023/07/07 09:51:39;;;;;;;;;;;;;;;21.70;49.56;102047.84;5083920;28;19927;-76
2023/07/07 09:54:07;;;;;;;;;;;;;;;21.71;49.72;102041.44;5055864;28;19917;-76
2023/07/07 09:56:35;;;;;;;;;;;;;;;21.73;49.80;102035.00;5046218;28;19936;-74
2023/07/07 09:59:06;;;;;;;;;;;;;;;21.73;49.71;102043.97;5084337;28;19988;-73
2023/07/07 10:01:33;;;;;;;;;;;;;;;21.74;49.55;102037.53;5049515;28;19928;-73
2023/07/07 10:03:58;;;;;;;;;;;;;;;21.75;49.69;102044.69;5050266;28;19917;-73
2023/07/07 10:06:32;;;;;;;;;;;;;;;21.76;49.56;102040.13;5085278;28;19917;-73
2023/07/07 10:08:58;;;;;;;;;;;;;;;21.77;49.50;102036.41;5049089;28;19936;-74
2023/07/07 10:11:25;;;;;;;;;;;;;;;21.77;49.85;102037.22;5051841;28;19921;-73
2023/07/07 10:13:51;;;;;;;;;;;;;;;21.79;49.72;102037.06;5086894;28;20053;-73
2023/07/07 10:16:35;;;;;;;;;;;;;;;21.80;49.94;102039.63;5050354;28;19917;-73
2023/07/07 10:19:09;;;;;;;;;;;;;;;21.81;49.76;102035.91;5049099;28;19921;-74
2023/07/07 10:21:35;;;;;;;;;;;;;;;21.82;50.02;102034.88;5081734;28;19913;-73
2023/07/07 10:24:00;;;;;;;;;;;;;;;21.83;49.70;102039.28;5049052;28;19986;-74
2023/07/07 10:26:25;;;;;;;;;;;;;;;21.84;49.96;102038.31;5051758;28;19920;-74
2023/07/07 10:28:51;;;;;;;;;;;;;;;21.85;49.80;102031.03;5048115;28;20649;-74
2023/07/07 10:31:17;;;;;;;;;;;;;;;21.86;49.72;102030.00;5077369;28;19917;-74
2023/07/07 10:33:42;;;;;;;;;;;;;;;21.87;50.06;102039.81;5049385;28;20433;-74
2023/07/07 10:36:24;;;;;;;;;;;;;;;21.88;49.90;102045.09;5063452;28;20349;-74
2023/07/07 10:38:49;;;;;;;;;;;;;;;21.89;49.92;102035.09;5082881;28;19922;-73
2023/07/07 10:41:14;;;;;;;;;;;;;;;21.90;49.86;102034.09;5051916;28;19913;-73
2023/07/07 10:43:39;;;;;;;;;;;;;;;21.91;50.11;102033.06;5051645;28;19980;-73
2023/07/07 10:46:11;;;;;;;;;;;;;;;21.91;49.97;102033.91;5051449;28;19921;-73
2023/07/07 10:48:39;;;;;;;;;;;;;;;21.93;50.28;102031.06;5050968;28;19925;-73
2023/07/07 10:51:19;;;;;;;;;;;;;;;21.94;50.10;102035.47;5080593;28;19913;-73
2023/07/07 10:54:00;;;;;;;;;;;;;;;21.95;50.15;102035.28;5053845;28;19912;-74
2023/07/07 10:56:25;;;;;;;;;;;;;;;;;;5048810;28;19921;-72
2023/07/07 10:58:50;;;;;;;;;;;;;;;22.00;50.02;102036.66;5049312;28;19920;-73
2023/07/07 11:01:15;;;;;;;;;;;;;;;22.01;50.26;102035.69;5050574;28;19921;-74
2023/07/07 11:03:40;;;;;;;;;;;;;;;22.03;50.12;102028.22;5048148;28;19931;-73
2023/07/07 11:06:11;;;;;;;;;;;;;;;22.04;50.14;102027.22;5052411;28;19956;-73
2023/07/07 11:08:42;;;;;;;;;;;;;;;22.06;50.18;102030.63;5052644;28;19917;-74
2023/07/07 11:11:07;;;;;;;;;;;;;;;22.08;50.25;102034.00;5066122;28;20029;-74
2023/07/07 11:13:43;;;;;;;;;;;;;;;22.10;50.41;102032.00;5051909;28;20641;-73
2023/07/07 11:16:21;;;;;;;;;;;;;;;22.11;50.35;102031.81;5052314;28;19917;-74
2023/07/07 11:19:09;;;;;;;;;;;;;;;22.13;50.39;102024.44;5050494;28;19963;-73
2023/07/07 11:21:37;;;;;;;;;;;;;;;22.15;50.26;102018.84;5052847;28;19967;-74
2023/07/07 11:24:06;;;;;;;;;;;;;;;22.17;50.21;102019.50;5044259;28;19989;-74
2023/07/07 11:26:34;;;;;;;;;;;;;;;22.19;50.54;102012.09;5047176;28;19921;-76
2023/07/07 11:29:09;;;;;;;;;;;;;;;22.21;50.27;102012.75;5060038;28;19917;-75
2023/07/07 11:31:40;;;;;;;;;;;;;;;22.23;50.26;102015.31;5073480;28;19955;-73
2023/07/07 11:34:17;;;;;;;;;;;;;;;22.24;50.04;102012.44;5051044;28;20016;-73
2023/07/07 11:36:52;;;;;;;;;;;;;;;22.25;50.32;102010.56;5047659;28;19921;-74
2023/07/07 11:39:21;;;;;;;;;;;;;;;22.24;50.57;102004.31;5051681;28;19928;-74
2023/07/07 11:41:55;;;;;;;;;;;;;;;22.25;50.71;101997.03;5051040;28;19913;-77
2023/07/07 11:44:39;;;;;;;;;;;;;;;22.24;50.45;102003.47;5051742;28;19913;-73
2023/07/07 11:47:04;;;;;;;;;;;;;;;22.23;50.55;102002.63;5084297;28;19917;-72
2023/07/07 11:49:36;;;;;;;;;;;;;;;22.23;50.48;102001.78;5052241;28;19917;-71
2023/07/07 11:52:09;;;;;;;;;;;;;;;22.22;50.32;101998.22;5047455;28;19984;-71
2023/07/07 11:54:37;;;;;;;;;;;;;;;22.21;50.59;101997.34;5086244;28;19913;-71
2023/07/07 11:57:08;;;;;;;;;;;;;;;22.23;50.53;101996.34;5045283;28;20007;-70
2023/07/07 12:00:09;;;;;;;;;;;;;;;22.21;50.92;101991.09;5050175;28;20004;-73
2023/07/07 12:02:36;;;;;;;;;;;;;;;22.22;50.64;101987.38;5068852;28;19921;-69
2023/07/07 12:05:02;;;;;;;;;;;;;;;22.22;50.74;101998.22;5052463;28;20573;-75
2023/07/07 12:07:47;;;;;;;;;;;;;;;22.22;50.67;101995.50;5052733;28;19972;-75
2023/07/07 12:10:20;;;;;;;;;;;;;;;22.22;50.60;101990.09;5067098;28;19975;-77
2023/07/07 12:13:05;;;;;;;;;;;;;;;22.22;50.67;101992.81;5053142;28;19913;-76
2023/07/07 12:15:32;;;;;;;;;;;;;;;22.22;50.82;101995.50;5070443;28;20011;-76
2023/07/07 12:18:05;;;;;;;;;;;;;;;22.21;50.73;101989.22;5040410;28;19979;-77
2023/07/07 12:20:33;;;;;;;;;;;;;;;22.23;50.92;101990.94;5048675;28;20243;-75
2023/07/07 12:23:00;;;;;;;;;;;;;;;22.22;50.72;101981.97;5071932;28;20348;-75
2023/07/07 12:25:26;;;;;;;;;;;;;;;22.24;50.82;101992.63;5047709;28;19923;-73
2023/07/07 12:27:52;;;;;;;;;;;;;;;22.25;50.77;101987.03;5052500;28;19912;-74
2023/07/07 12:30:19;;;;;;;;;;;;;;;22.24;50.76;101973.66;5051891;28;20011;-73
2023/07/07 12:32:45;;;;;;;;;;;;;;;22.25;50.83;101972.66;5069095;28;19912;-72
2023/07/07 12:35:17;;;;;;;;;;;;;;;22.25;50.64;101978.06;5069591;28;20479;-75
2023/07/07 12:37:42;;;;;;;;;;;;;;;22.25;51.06;101978.91;5048087;28;19984;-74
2023/07/07 12:40:11;;;;;;;;;;;;;;;22.25;50.87;101973.50;5067413;28;19917;-73